Time;durP1;ratioP1;P1;durP2;ratioP2;P2;SDS_P1;SDS_P2;PMS_P1;PMS_P2;Temp;Humidity;BMP_temperature;BMP_pressure;BME280_temperature;BME280_humidity;BME280_pressure;Samples;Min_cycle;Max_cycle;Signal;HPM_P1;HPM_P2
2021/06/07 00:01:10;;;;;;;33.75;29.52;;;461.00;2380.80;;;;;;5086837;28;20445;-77
2021/06/07 00:03:36;;;;;;;32.72;29.15;;;461.00;2380.80;;;;;;5081603;28;20039;-77
2021/06/07 00:06:03;;;;;;;33.90;28.42;;;460.90;2380.80;;;;;;5088394;28;20047;-77
2021/06/07 00:08:28;;;;;;;33.08;28.88;;;460.90;2380.80;;;;;;5083503;28;20024;-77
2021/06/07 00:10:54;;;;;;;34.30;30.58;;;460.80;2380.80;;;;;;5077308;28;20496;-77
2021/06/07 00:13:21;;;;;;;32.97;29.42;;;460.80;2380.80;;;;;;5078501;28;20065;-77
2021/06/07 00:15:48;;;;;;;34.45;30.73;;;460.80;2380.80;;;;;;5082002;28;20078;-77
2021/06/07 00:18:15;;;;;;;33.67;30.13;;;460.80;2380.80;;;;;;5078515;28;20404;-78
2021/06/07 00:20:45;;;;;;;35.35;31.35;;;460.80;2380.80;;;;;;5076212;28;20032;-78
2021/06/07 00:23:11;;;;;;;35.25;31.13;;;436.10;2355.20;;;;;;5088815;28;20020;-77
2021/06/07 00:25:41;;;;;;;33.78;30.20;;;436.10;2355.20;;;;;;5090475;28;20496;-78
2021/06/07 00:28:07;;;;;;;34.10;28.67;;;436.10;2355.20;;;;;;5093585;28;20024;-78
2021/06/07 00:30:34;;;;;;;37.63;32.13;;;436.10;2355.20;;;;;;5100896;28;20020;-78
2021/06/07 00:33:00;;;;;;;44.47;31.95;;;436.00;2355.20;;;;;;5078937;28;20051;-78
2021/06/07 00:35:30;;;;;;;37.17;32.22;;;436.00;2355.20;;;;;;5097684;28;20032;-78
2021/06/07 00:37:56;;;;;;;38.22;33.95;;;436.00;2355.20;;;;;;5094994;28;20075;-78
2021/06/07 00:40:27;;;;;;;37.50;33.05;;;435.90;2355.20;;;;;;5080522;28;20052;-79
2021/06/07 00:42:54;;;;;;;36.55;32.55;;;435.90;2355.20;;;;;;5087091;28;20024;-78
2021/06/07 00:45:29;;;;;;;37.58;33.08;;;435.90;2355.20;;;;;;5090541;28;20046;-77
2021/06/07 00:47:57;;;;;;;37.40;31.95;;;435.90;2355.20;;;;;;5086477;28;20036;-78
2021/06/07 00:50:48;;;;;;;39.30;32.83;;;435.80;2355.20;;;;;;5094439;28;20041;-78
2021/06/07 00:53:17;;;;;;;37.50;33.40;;;435.80;2355.20;;;;;;5081301;28;20505;-77
2021/06/07 00:55:54;;;;;;;38.75;33.53;;;435.90;2355.20;;;;;;5083714;28;20152;-78
2021/06/07 00:58:27;;;;;;;37.90;33.72;;;435.90;2355.20;;;;;;5077879;28;20070;-79
2021/06/07 01:00:53;;;;;;;37.05;32.33;;;435.90;2355.20;;;;;;5091533;28;20488;-78
2021/06/07 01:03:20;;;;;;;35.92;31.45;;;435.90;2355.20;;;;;;5084154;28;20428;-78
2021/06/07 01:05:47;;;;;;;35.53;31.15;;;436.00;2355.20;;;;;;5093994;28;20039;-79
2021/06/07 01:08:13;;;;;;;34.55;30.13;;;436.00;2355.20;;;;;;5088087;28;20027;-78
2021/06/07 01:10:40;;;;;;;37.42;32.63;;;436.00;2355.20;;;;;;5090432;28;20020;-78
2021/06/07 01:13:06;;;;;;;41.40;32.30;;;435.90;2355.20;;;;;;5078220;28;20028;-78
2021/06/07 01:15:32;;;;;;;42.15;33.28;;;435.80;2355.20;;;;;;5086593;28;20028;-78
2021/06/07 01:17:58;;;;;;;39.80;32.75;;;435.90;2355.20;;;;;;5094216;28;20047;-78
2021/06/07 01:20:24;;;;;;;37.30;31.05;;;435.90;2355.20;;;;;;5095712;28;20024;-77
2021/06/07 01:22:51;;;;;;;41.55;33.08;;;435.80;2355.20;;;;;;5095412;28;20512;-77
2021/06/07 01:25:26;;;;;;;42.22;35.97;;;435.90;2355.20;;;;;;5095494;28;20028;-77
2021/06/07 01:27:54;;;;;;;38.27;34.00;;;435.80;2355.20;;;;;;5093413;28;20070;-76
2021/06/07 01:30:33;;;;;;;39.65;34.90;;;435.90;2355.20;;;;;;5092838;28;20080;-76
2021/06/07 01:32:59;;;;;;;40.90;36.50;;;435.90;2355.20;;;;;;5089055;28;20565;-77
2021/06/07 01:35:27;;;;;;;40.63;33.08;;;435.90;2355.20;;;;;;5092725;28;20107;-77
2021/06/07 01:37:54;;;;;;;40.40;35.33;;;435.90;2355.20;;;;;;5093156;28;20043;-77
2021/06/07 01:40:30;;;;;;;42.08;35.33;;;435.90;2355.20;;;;;;5087427;28;20111;-77
2021/06/07 01:42:56;;;;;;;38.08;33.95;;;435.90;2355.20;;;;;;5075128;28;20027;-77
2021/06/07 01:45:23;;;;;;;43.35;36.42;;;435.90;2355.20;;;;;;5093618;28;20511;-77
2021/06/07 01:47:50;;;;;;;40.30;35.90;;;435.70;2355.20;;;;;;5092243;28;20032;-76
2021/06/07 01:50:16;;;;;;;42.67;34.67;;;435.70;2355.20;;;;;;5093725;28;20510;-77
2021/06/07 01:52:45;;;;;;;40.58;34.50;;;435.70;2355.20;;;;;;5093677;28;20021;-76
2021/06/07 01:55:14;;;;;;;45.65;36.70;;;435.70;2355.20;;;;;;5090628;28;20028;-77
2021/06/07 01:57:41;;;;;;;42.13;34.75;;;435.70;2355.20;;;;;;5092665;28;20391;-76
2021/06/07 02:00:11;;;;;;;39.22;34.45;;;435.60;2355.20;;;;;;5092610;28;20031;-77
2021/06/07 02:02:42;;;;;;;37.63;32.78;;;435.50;2355.20;;;;;;5075630;28;20020;-77
2021/06/07 02:05:10;;;;;;;36.17;31.88;;;435.50;2355.20;;;;;;5086745;28;20115;-76
2021/06/07 02:07:35;;;;;;;34.25;30.58;;;435.50;2355.20;;;;;;5088865;28;20103;-77
2021/06/07 02:10:01;;;;;;;38.95;32.05;;;435.50;2355.20;;;;;;5093235;28;20048;-77
2021/06/07 02:12:27;;;;;;;36.42;31.02;;;435.40;2355.20;;;;;;5089706;28;20024;-78
2021/06/07 02:14:52;;;;;;;35.22;31.25;;;435.30;2355.20;;;;;;5092377;28;20028;-77
2021/06/07 02:17:18;;;;;;;34.97;30.30;;;435.20;2355.20;;;;;;5086812;28;20036;-78
2021/06/07 02:19:48;;;;;;;37.92;30.85;;;435.40;2355.20;;;;;;5087518;28;20469;-78
2021/06/07 02:22:13;;;;;;;37.50;30.80;;;435.40;2355.20;;;;;;5085575;28;20487;-77
2021/06/07 02:24:39;;;;;;;35.45;31.25;;;435.30;2355.20;;;;;;5088837;28;20111;-76
2021/06/07 02:27:05;;;;;;;33.78;28.88;;;435.20;2355.20;;;;;;5090866;28;20438;-76
2021/06/07 02:29:31;;;;;;;34.28;30.67;;;435.20;2355.20;;;;;;5091684;28;20042;-77
2021/06/07 02:31:57;;;;;;;34.67;29.48;;;435.40;2355.20;;;;;;5095279;28;20020;-76
2021/06/07 02:34:22;;;;;;;32.30;28.80;;;435.40;2355.20;;;;;;5080474;28;20074;-76
2021/06/07 02:36:48;;;;;;;30.58;27.48;;;435.40;2355.20;;;;;;5105260;28;20103;-77
2021/06/07 02:39:15;;;;;;;33.63;26.52;;;435.40;2355.20;;;;;;5081450;28;20061;-76
2021/06/07 02:41:42;;;;;;;29.20;26.25;;;435.40;2355.20;;;;;;5077027;28;20127;-76
2021/06/07 02:44:09;;;;;;;32.60;26.45;;;435.40;2355.20;;;;;;5101705;28;20027;-76
2021/06/07 02:46:34;;;;;;;29.83;26.73;;;435.40;2355.20;;;;;;5108593;28;20055;-77
2021/06/07 02:49:00;;;;;;;27.33;23.35;;;435.20;2355.20;;;;;;5089796;28;20070;-77
2021/06/07 02:51:26;;;;;;;31.20;26.67;;;435.20;2355.20;;;;;;5079009;28;20028;-78
2021/06/07 02:53:52;;;;;;;30.15;26.08;;;435.20;2355.20;;;;;;5091313;28;20153;-77
2021/06/07 02:56:17;;;;;;;26.45;23.75;;;435.20;2355.20;;;;;;5076849;28;20028;-77
2021/06/07 02:58:43;;;;;;;24.23;21.55;;;410.50;2355.20;;;;;;5090961;28;20369;-77
2021/06/07 03:01:11;;;;;;;24.00;20.95;;;410.50;2355.20;;;;;;5085955;28;20028;-77
2021/06/07 03:03:37;;;;;;;21.52;18.30;;;410.40;2355.20;;;;;;5079208;28;20103;-77
2021/06/07 03:06:04;;;;;;;19.73;17.73;;;410.40;2355.20;;;;;;5085757;28;20048;-78
2021/06/07 03:08:32;;;;;;;17.15;15.38;;;410.40;2355.20;;;;;;5090988;28;20016;-77
2021/06/07 03:11:03;;;;;;;17.10;15.40;;;410.40;2355.20;;;;;;5083295;28;20021;-77
2021/06/07 03:13:29;;;;;;;16.55;14.75;;;410.30;2355.20;;;;;;5107949;28;20110;-77
2021/06/07 03:15:57;;;;;;;18.67;16.60;;;410.30;2355.20;;;;;;5088107;28;20028;-77
2021/06/07 03:18:23;;;;;;;18.60;15.32;;;410.30;2355.20;;;;;;5084551;28;20044;-77
2021/06/07 03:20:49;;;;;;;18.55;16.08;;;410.30;2355.20;;;;;;5091774;28;20035;-77
2021/06/07 03:23:21;;;;;;;15.35;13.77;;;410.30;2355.20;;;;;;5092046;28;20212;-77
2021/06/07 03:25:49;;;;;;;19.13;14.45;;;410.30;2355.20;;;;;;5085264;28;20116;-78
2021/06/07 03:28:17;;;;;;;17.35;13.90;;;410.30;2355.20;;;;;;5082991;28;20027;-77
2021/06/07 03:30:44;;;;;;;16.98;14.20;;;410.40;2355.20;;;;;;5091693;28;20106;-77
2021/06/07 03:33:10;;;;;;;16.30;13.60;;;410.50;2355.20;;;;;;5090881;28;20561;-78
2021/06/07 03:35:38;;;;;;;15.48;13.95;;;435.20;2355.20;;;;;;5096583;28;20039;-77
2021/06/07 03:38:06;;;;;;;13.80;12.50;;;435.30;2355.20;;;;;;5082779;28;20092;-76
2021/06/07 03:40:35;;;;;;;15.50;13.30;;;435.40;2355.20;;;;;;5082472;28;20028;-76
2021/06/07 03:43:01;;;;;;;13.02;11.73;;;435.40;2355.20;;;;;;5086298;28;20067;-76
2021/06/07 03:45:28;;;;;;;15.52;12.38;;;435.50;2355.20;;;;;;5091580;28;20032;-77
2021/06/07 03:47:54;;;;;;;14.30;12.10;;;435.50;2355.20;;;;;;5091080;28;20028;-75
2021/06/07 03:50:22;;;;;;;14.07;11.75;;;435.70;2355.20;;;;;;5091604;28;20411;-77
2021/06/07 03:52:48;;;;;;;14.85;11.68;;;435.80;2355.20;;;;;;5091339;28;20024;-77
2021/06/07 03:55:17;;;;;;;12.57;11.32;;;435.90;2355.20;;;;;;5082163;28;20033;-77
2021/06/07 03:57:43;;;;;;;16.58;12.40;;;436.00;2355.20;;;;;;5079908;28;20032;-77
2021/06/07 04:00:13;;;;;;;13.32;11.90;;;460.80;2380.80;;;;;;5104520;28;20499;-77
2021/06/07 04:02:39;;;;;;;12.88;10.40;;;460.80;2380.80;;;;;;5101238;28;20070;-77
2021/06/07 04:05:06;;;;;;;13.95;11.13;;;460.90;2380.80;;;;;;5083768;28;20470;-77
2021/06/07 04:07:34;;;;;;;12.38;11.18;;;461.00;2380.80;;;;;;5075795;28;20124;-76
2021/06/07 04:10:08;;;;;;;13.77;11.85;;;461.10;2380.80;;;;;;5079692;28;20081;-77
2021/06/07 04:12:34;;;;;;;12.57;11.30;;;461.30;2380.80;;;;;;5086298;28;20023;-78
2021/06/07 04:15:00;;;;;;;13.18;11.27;;;461.40;2380.80;;;;;;5081313;28;20029;-77
2021/06/07 04:17:25;;;;;;;13.27;11.85;;;461.40;2380.80;;;;;;5080394;28;20032;-77
2021/06/07 04:19:52;;;;;;;13.95;10.77;;;461.30;2380.80;;;;;;5091284;28;20852;-77
2021/06/07 04:22:18;;;;;;;13.68;11.40;;;461.30;2380.80;;;;;;5083501;28;20020;-77
2021/06/07 04:24:45;;;;;;;16.02;10.55;;;461.40;2380.80;;;;;;5082430;28;20034;-78
2021/06/07 04:27:13;;;;;;;12.23;10.23;;;461.60;2380.80;;;;;;5091821;28;20073;-78
2021/06/07 04:29:40;;;;;;;14.10;10.57;;;486.40;2380.80;;;;;;5087572;28;20052;-77
2021/06/07 04:32:07;;;;;;;11.85;10.05;;;486.60;2380.80;;;;;;5090334;28;20020;-79
2021/06/07 04:34:33;;;;;;;12.48;10.45;;;486.60;2380.80;;;;;;5090452;28;20711;-78
2021/06/07 04:36:59;;;;;;;12.50;10.82;;;486.70;2380.80;;;;;;5075493;28;20028;-78
2021/06/07 04:39:25;;;;;;;11.85;9.52;;;486.80;2380.80;;;;;;5086559;28;20514;-77
2021/06/07 04:41:50;;;;;;;13.32;9.57;;;486.90;2380.80;;;;;;5090627;28;20025;-77
2021/06/07 04:44:16;;;;;;;12.35;9.80;;;486.90;2380.80;;;;;;5090479;28;20392;-78
2021/06/07 04:46:42;;;;;;;11.70;9.07;;;487.00;2380.80;;;;;;5089942;28;20035;-77
2021/06/07 04:49:07;;;;;;;12.32;9.85;;;487.10;2380.80;;;;;;5090452;28;20559;-77
2021/06/07 04:51:33;;;;;;;11.93;9.65;;;487.00;2380.80;;;;;;5090566;28;20123;-77
2021/06/07 04:53:59;;;;;;;11.38;9.98;;;512.00;2380.80;;;;;;5075800;28;20028;-77
2021/06/07 04:56:25;;;;;;;13.77;9.98;;;512.30;2380.80;;;;;;5072294;28;20370;-78
2021/06/07 04:58:50;;;;;;;10.43;9.18;;;512.50;2380.80;;;;;;5088037;28;20051;-78
2021/06/07 05:01:17;;;;;;;10.10;7.80;;;512.90;2380.80;;;;;;5091428;28;20035;-77
2021/06/07 05:03:43;;;;;;;9.30;7.45;;;537.90;2406.40;;;;;;5089963;28;20051;-78
2021/06/07 05:06:09;;;;;;;9.20;8.30;;;538.20;2406.40;;;;;;5088684;28;20048;-77
2021/06/07 05:08:35;;;;;;;11.00;8.57;;;538.40;2406.40;;;;;;5075824;28;20042;-78
2021/06/07 05:11:01;;;;;;;9.85;8.77;;;538.20;2406.40;;;;;;5082006;28;21096;-78
2021/06/07 05:13:27;;;;;;;11.43;8.82;;;563.20;2432.00;;;;;;5090031;28;20369;-78
2021/06/07 05:15:56;;;;;;;12.60;10.25;;;563.50;2432.00;;;;;;5086157;28;20057;-78
2021/06/07 05:18:22;;;;;;;9.00;7.97;;;563.60;2432.00;;;;;;5083983;28;20029;-77
2021/06/07 05:20:50;;;;;;;9.25;8.15;;;563.80;2432.00;;;;;;5080139;28;20468;-78
2021/06/07 05:23:16;;;;;;;8.82;7.82;;;564.10;2432.00;;;;;;5074383;28;20503;-78
2021/06/07 05:25:43;;;;;;;10.20;8.52;;;588.80;2432.00;;;;;;5072395;28;20165;-79
2021/06/07 05:28:10;;;;;;;10.13;8.32;;;588.90;2432.00;;;;;;5085468;28;20074;-78
2021/06/07 05:30:38;;;;;;;13.82;8.90;;;589.20;2432.00;;;;;;5091059;28;20480;-78
2021/06/07 05:33:05;;;;;;;13.32;9.98;;;589.30;2432.00;;;;;;5087612;28;20039;-78
2021/06/07 05:35:33;;;;;;;13.43;10.40;;;589.40;2432.00;;;;;;5094102;28;20476;-77
2021/06/07 05:37:59;;;;;;;12.32;10.63;;;589.40;2432.00;;;;;;5083912;28;20166;-77
2021/06/07 05:40:28;;;;;;;14.75;10.70;;;589.40;2432.00;;;;;;5088031;28;20081;-78
2021/06/07 05:42:54;;;;;;;10.55;9.45;;;589.50;2432.00;;;;;;5090984;28;20028;-78
2021/06/07 05:45:20;;;;;;;14.90;9.88;;;589.70;2432.00;;;;;;5092568;28;20031;-77
2021/06/07 05:47:46;;;;;;;13.40;9.57;;;589.30;2432.00;;;;;;5086928;28;20030;-78
2021/06/07 05:50:15;;;;;;;9.88;8.88;;;589.30;2432.00;;;;;;5086642;28;20032;-77
2021/06/07 05:52:47;;;;;;;12.65;9.27;;;589.40;2432.00;;;;;;5094931;28;20487;-77
2021/06/07 05:55:23;;;;;;;10.98;9.63;;;589.50;2432.00;;;;;;5091100;28;20020;-77
2021/06/07 05:57:54;;;;;;;13.40;8.57;;;589.70;2432.00;;;;;;5082878;28;20111;-77
2021/06/07 06:00:25;;;;;;;10.45;8.63;;;614.60;2380.80;;;;;;5092037;28;20333;-77
2021/06/07 06:02:50;;;;;;;13.77;8.07;;;614.90;2355.20;;;;;;5091299;28;20030;-77
2021/06/07 06:05:16;;;;;;;12.57;8.20;;;615.00;2304.00;;;;;;5092501;28;20111;-77
2021/06/07 06:07:43;;;;;;;10.20;7.97;;;615.20;2278.40;;;;;;5084441;28;20040;-77
2021/06/07 06:10:10;;;;;;;8.95;7.00;;;640.00;2176.00;;;;;;5074892;28;20458;-76
2021/06/07 06:12:36;;;;;;;7.80;6.55;;;640.30;2150.40;;;;;;5088353;28;20028;-76
2021/06/07 06:15:03;;;;;;;10.73;7.95;;;640.40;2124.80;;;;;;5081321;28;20099;-77
2021/06/07 06:17:28;;;;;;;8.70;7.75;;;640.40;2150.40;;;;;;5084426;28;20511;-76
2021/06/07 06:19:54;;;;;;;8.10;6.68;;;640.40;2150.40;;;;;;5081336;28;20025;-76
2021/06/07 06:22:20;;;;;;;11.52;6.85;;;640.80;2150.40;;;;;;5076634;28;20029;-76
2021/06/07 06:24:46;;;;;;;9.10;7.28;;;640.70;2150.40;;;;;;5081249;28;20024;-76
2021/06/07 06:27:13;;;;;;;7.72;6.50;;;640.60;2124.80;;;;;;5089439;28;20401;-81
2021/06/07 06:29:40;;;;;;;7.70;6.22;;;640.60;2099.20;;;;;;5089166;28;20113;-76
2021/06/07 06:32:07;;;;;;;6.70;5.90;;;640.80;2048.00;;;;;;5081790;28;20070;-76
2021/06/07 06:34:33;;;;;;;12.07;7.13;;;640.70;2048.00;;;;;;5093802;28;20024;-77
2021/06/07 06:36:59;;;;;;;7.60;6.45;;;640.80;2048.00;;;;;;5088155;28;20032;-76
2021/06/07 06:39:24;;;;;;;8.55;7.43;;;665.60;2099.20;;;;;;5080558;28;20139;-77
2021/06/07 06:41:50;;;;;;;9.93;5.78;;;665.70;2099.20;;;;;;5090461;28;20070;-77
2021/06/07 06:44:16;;;;;;;9.90;6.57;;;665.80;2150.40;;;;;;5083899;28;20489;-77
2021/06/07 06:46:43;;;;;;;6.15;5.53;;;666.10;2048.00;;;;;;5076957;28;20028;-77
2021/06/07 06:49:09;;;;;;;8.82;7.55;;;666.10;2073.60;;;;;;5092810;28;20023;-77
2021/06/07 06:51:34;;;;;;;9.00;6.80;;;666.20;2048.00;;;;;;5093702;28;20028;-77
2021/06/07 06:54:00;;;;;;;8.88;6.15;;;691.20;2048.00;;;;;;5092442;28;20028;-77
2021/06/07 06:56:26;;;;;;;9.90;6.55;;;691.20;2022.40;;;;;;5092419;28;20035;-77
2021/06/07 06:58:52;;;;;;;7.03;6.32;;;691.40;2022.40;;;;;;5087946;28;20050;-77
2021/06/07 07:01:18;;;;;;;8.88;6.10;;;691.30;2048.00;;;;;;5077805;28;20024;-77
2021/06/07 07:03:45;;;;;;;7.32;5.88;;;691.30;2022.40;;;;;;5083578;28;20111;-77
2021/06/07 07:06:11;;;;;;;6.63;5.95;;;691.30;2022.40;;;;;;5088776;28;20036;-77
2021/06/07 07:08:37;;;;;;;7.25;5.30;;;691.40;1996.80;;;;;;5080479;28;20099;-76
2021/06/07 07:11:03;;;;;;;6.13;5.53;;;691.50;1971.20;;;;;;5077847;28;20044;-77
2021/06/07 07:13:29;;;;;;;9.55;5.78;;;691.50;1996.80;;;;;;5086533;28;20488;-77
2021/06/07 07:15:55;;;;;;;7.38;5.40;;;691.70;1971.20;;;;;;5079012;28;20031;-76
2021/06/07 07:18:21;;;;;;;10.85;6.07;;;691.50;1971.20;;;;;;5075451;28;20865;-77
2021/06/07 07:20:47;;;;;;;6.93;5.78;;;691.40;1996.80;;;;;;5089753;28;20032;-77
2021/06/07 07:23:13;;;;;;;6.85;5.35;;;691.70;1971.20;;;;;;5074496;28;20040;-77
2021/06/07 07:25:40;;;;;;;15.80;5.90;;;691.90;1945.60;;;;;;5086963;28;20118;-77
2021/06/07 07:28:08;;;;;;;9.55;5.03;;;691.90;1920.00;;;;;;5079022;28;20035;-76
2021/06/07 07:30:35;;;;;;;6.30;4.70;;;691.90;1920.00;;;;;;5088369;28;20050;-77
2021/06/07 07:33:02;;;;;;;6.25;4.93;;;716.80;1920.00;;;;;;5084649;28;20020;-77
2021/06/07 07:35:28;;;;;;;6.28;4.88;;;716.80;1894.40;;;;;;5093111;28;20020;-77
2021/06/07 07:37:55;;;;;;;6.47;5.32;;;716.90;1920.00;;;;;;5092322;28;20023;-77
2021/06/07 07:40:22;;;;;;;8.30;5.38;;;717.20;1920.00;;;;;;5092675;28;20024;-76
2021/06/07 07:42:50;;;;;;;5.32;3.83;;;717.10;1894.40;;;;;;5089255;28;20009;-77
2021/06/07 07:45:19;;;;;;;8.65;5.70;;;717.30;1894.40;;;;;;5091166;28;20035;-76
2021/06/07 07:47:44;;;;;;;6.15;4.95;;;717.30;1868.80;;;;;;5083303;28;20037;-76
2021/06/07 07:50:15;;;;;;;6.43;5.03;;;717.50;1868.80;;;;;;5088084;28;20031;-77
2021/06/07 07:52:43;;;;;;;7.20;4.85;;;717.70;1843.20;;;;;;5088204;28;20481;-77
2021/06/07 07:55:14;;;;;;;7.45;5.50;;;717.70;1868.80;;;;;;5082907;28;20028;-77
2021/06/07 07:57:41;;;;;;;9.00;4.97;;;717.70;1894.40;;;;;;5079473;28;20107;-77
2021/06/07 08:00:12;;;;;;;7.50;5.25;;;717.70;1868.80;;;;;;5091425;28;20026;-77
2021/06/07 08:02:38;;;;;;;6.45;5.20;;;717.70;1868.80;;;;;;5089856;28;20060;-77
2021/06/07 08:05:06;;;;;;;11.77;4.93;;;742.60;1843.20;;;;;;5090679;28;20032;-76
2021/06/07 08:07:31;;;;;;;6.45;4.82;;;743.10;1817.60;;;;;;5084602;28;20035;-76
2021/06/07 08:09:57;;;;;;;5.75;4.70;;;743.10;1817.60;;;;;;5085836;28;20034;-78
2021/06/07 08:12:23;;;;;;;7.20;5.38;;;768.10;1792.00;;;;;;5080043;28;20020;-76
2021/06/07 08:14:49;;;;;;;5.10;4.60;;;768.00;1792.00;;;;;;5084974;28;20031;-76
2021/06/07 08:17:16;;;;;;;4.93;4.30;;;768.30;1740.80;;;;;;5086881;28;20059;-76
2021/06/07 08:19:42;;;;;;;6.05;4.68;;;768.60;1715.20;;;;;;5085560;28;20029;-76
2021/06/07 08:22:09;;;;;;;6.00;4.63;;;768.60;1689.60;;;;;;5078010;28;20042;-77
2021/06/07 08:24:35;;;;;;;6.80;4.85;;;768.80;1689.60;;;;;;5081305;28;20473;-81
2021/06/07 08:27:01;;;;;;;6.47;4.25;;;768.70;1664.00;;;;;;5077564;28;20037;-79
2021/06/07 08:29:27;;;;;;;14.90;5.38;;;768.20;1664.00;;;;;;5075365;28;20037;-79
2021/06/07 08:31:53;;;;;;;11.23;4.57;;;768.30;1664.00;;;;;;5076704;28;20385;-79
2021/06/07 08:34:19;;;;;;;5.88;4.82;;;768.80;1638.40;;;;;;5071026;28;20651;-79
2021/06/07 08:36:44;;;;;;;4.65;3.97;;;768.90;1612.80;;;;;;5076667;28;20032;-80
2021/06/07 08:39:11;;;;;;;7.47;4.28;;;768.70;1612.80;;;;;;5085725;28;20172;-79
2021/06/07 08:41:37;;;;;;;7.60;4.50;;;768.50;1612.80;;;;;;5083078;28;20030;-79
2021/06/07 08:44:04;;;;;;;4.43;3.67;;;768.70;1612.80;;;;;;5086370;28;20047;-79
2021/06/07 08:46:30;;;;;;;7.20;4.28;;;793.80;1587.20;;;;;;5087981;28;20058;-80
2021/06/07 08:48:56;;;;;;;5.50;3.60;;;794.30;1587.20;;;;;;5074432;28;20258;-79
2021/06/07 08:51:22;;;;;;;6.10;4.05;;;794.30;1510.40;;;;;;5073436;28;20025;-79
2021/06/07 08:53:48;;;;;;;7.85;6.30;;;794.40;1510.40;;;;;;5085048;28;20640;-79
2021/06/07 08:56:15;;;;;;;5.40;3.60;;;819.30;1484.80;;;;;;5082901;28;20049;-79
2021/06/07 08:58:42;;;;;;;5.63;4.13;;;819.30;1459.20;;;;;;5088329;28;20048;-79
2021/06/07 09:01:09;;;;;;;6.40;3.72;;;794.10;1510.40;;;;;;5078837;28;20028;-79
2021/06/07 09:03:36;;;;;;;6.65;3.28;;;794.10;1484.80;;;;;;5080624;28;20557;-79
2021/06/07 09:06:04;;;;;;;4.95;3.33;;;794.30;1459.20;;;;;;5084098;28;20025;-80
2021/06/07 09:08:37;;;;;;;4.40;3.58;;;794.50;1433.60;;;;;;5071966;28;20032;-80
2021/06/07 09:11:13;;;;;;;6.55;4.10;;;820.00;1408.00;;;;;;5091935;28;20531;-79
2021/06/07 09:13:40;;;;;;;4.57;3.50;;;819.90;1382.40;;;;;;5081842;28;20596;-80
2021/06/07 09:16:09;;;;;;;7.30;4.00;;;819.70;1382.40;;;;;;5081995;28;20146;-80
2021/06/07 09:18:46;;;;;;;6.90;3.35;;;844.80;1382.40;;;;;;5091430;28;20080;-80
2021/06/07 09:21:18;;;;;;;3.50;3.05;;;845.00;1382.40;;;;;;5085745;28;20458;-80
2021/06/07 09:23:51;;;;;;;6.22;3.92;;;820.10;1331.20;;;;;;5084422;28;20016;-80
2021/06/07 09:26:32;;;;;;;3.42;2.95;;;845.00;1356.80;;;;;;5084433;28;20028;-79
2021/06/07 09:29:00;;;;;;;5.47;4.40;;;845.10;1331.20;;;;;;5089637;28;20357;-79
2021/06/07 09:31:46;;;;;;;6.63;4.15;;;845.00;1305.60;;;;;;5087698;28;20016;-81
2021/06/07 09:34:27;;;;;;;5.63;5.00;;;845.50;1305.60;;;;;;5086442;28;20434;-80
2021/06/07 09:36:53;;;;;;;5.40;4.05;;;845.50;1280.00;;;;;;5086350;28;20032;-79
2021/06/07 09:39:24;;;;;;;5.75;3.65;;;870.40;1254.40;;;;;;5089278;28;20028;-80
2021/06/07 09:42:00;;;;;;;7.25;3.50;;;845.60;1228.80;;;;;;5089434;28;20028;-80
2021/06/07 09:44:31;;;;;;;5.07;3.15;;;845.50;1228.80;;;;;;5100820;28;20020;-80
2021/06/07 09:47:14;;;;;;;7.15;6.45;;;845.40;1177.60;;;;;;5089023;28;20488;-81
2021/06/07 09:50:04;;;;;;;5.30;4.03;;;845.30;1203.20;;;;;;5083983;28;20127;-80
2021/06/07 09:52:55;;;;;;;9.65;3.75;;;845.70;1177.60;;;;;;5081098;28;20029;-81
2021/06/07 09:55:26;;;;;;;4.45;3.40;;;870.40;1152.00;;;;;;5086960;28;20020;-81
2021/06/07 09:57:56;;;;;;;5.50;3.30;;;870.60;1152.00;;;;;;5087055;28;20443;-81
2021/06/07 10:00:44;;;;;;;11.35;5.03;;;871.10;1126.40;;;;;;5087236;28;20020;-82
2021/06/07 10:03:21;;;;;;;6.13;3.35;;;870.60;1126.40;;;;;;5084149;28;20035;-80
2021/06/07 10:05:49;;;;;;;3.30;2.65;;;870.80;1075.20;;;;;;5083968;28;20028;-81
2021/06/07 10:08:17;;;;;;;4.65;2.60;;;870.80;1075.20;;;;;;5087977;28;20016;-81
2021/06/07 10:10:43;;;;;;;7.15;3.15;;;871.30;1049.60;;;;;;5083840;28;20008;-81
2021/06/07 10:13:10;;;;;;;6.40;3.67;;;871.20;1049.60;;;;;;5083938;28;20028;-80
2021/06/07 10:15:38;;;;;;;6.50;2.60;;;896.10;1024.00;;;;;;5082584;28;20484;-81
2021/06/07 10:18:13;;;;;;;3.22;2.45;;;896.10;1024.00;;;;;;5088377;28;20043;-81
2021/06/07 10:20:49;;;;;;;5.00;2.67;;;896.30;1024.00;;;;;;5082621;28;20035;-81
2021/06/07 10:23:29;;;;;;;5.15;4.13;;;896.50;1024.00;;;;;;5091040;28;20124;-80
2021/06/07 10:25:57;;;;;;;5.30;3.15;;;896.80;998.40;;;;;;5082635;28;20036;-81
2021/06/07 10:28:38;;;;;;;4.32;3.28;;;896.40;1049.60;;;;;;5082160;28;20031;-81
2021/06/07 10:31:11;;;;;;;7.97;4.65;;;896.40;1024.00;;;;;;5084208;28;20016;-81
2021/06/07 10:33:39;;;;;;;7.40;5.28;;;896.00;1049.60;;;;;;5083093;28;20047;-81
2021/06/07 10:36:23;;;;;;;11.00;7.25;;;871.00;1049.60;;;;;;5081122;28;20434;-81
2021/06/07 10:38:51;;;;;;;7.50;3.13;;;870.40;1075.20;;;;;;5083957;28;20024;-81
2021/06/07 10:41:29;;;;;;;6.05;3.45;;;870.60;1075.20;;;;;;5083110;28;20024;-81
2021/06/07 10:43:58;;;;;;;4.65;3.50;;;870.40;1049.60;;;;;;5082157;28;20031;-81
2021/06/07 10:46:29;;;;;;;5.97;3.17;;;871.00;1024.00;;;;;;5084875;28;20028;-81
2021/06/07 10:48:57;;;;;;;8.50;3.38;;;896.10;1024.00;;;;;;5090053;28;20032;-82
2021/06/07 10:51:31;;;;;;;7.13;3.30;;;871.10;1024.00;;;;;;5082961;28;20358;-81
2021/06/07 10:54:36;;;;;;;4.45;3.38;;;870.90;1024.00;;;;;;5081742;28;20020;-82
2021/06/07 10:57:31;;;;;;;8.48;4.35;;;871.10;1024.00;;;;;;5082869;28;20101;-81
2021/06/07 11:00:05;;;;;;;5.00;3.75;;;896.00;998.40;;;;;;5083673;28;20024;-80
2021/06/07 11:02:40;;;;;;;6.63;3.42;;;896.20;998.40;;;;;;5098793;28;20056;-80
2021/06/07 11:05:12;;;;;;;7.72;4.10;;;896.60;947.20;;;;;;5087908;28;20047;-80
2021/06/07 11:07:42;;;;;;;7.63;3.30;;;896.60;972.80;;;;;;5083392;28;20032;-80
2021/06/07 11:10:25;;;;;;;6.38;3.20;;;896.50;972.80;;;;;;5079504;28;20112;-80
2021/06/07 11:12:57;;;;;;;5.20;2.83;;;922.10;921.60;;;;;;5079932;28;20059;-79
2021/06/07 11:15:24;;;;;;;9.10;4.00;;;922.40;921.60;;;;;;5082981;28;20365;-79
2021/06/07 11:17:51;;;;;;;5.45;3.92;;;922.10;896.00;;;;;;5081708;28;20453;-77
2021/06/07 11:20:32;;;;;;;6.57;3.60;;;922.30;921.60;;;;;;5084531;28;20384;-78
2021/06/07 11:23:07;;;;;;;5.28;3.60;;;922.00;921.60;;;;;;5082966;28;20035;-78
2021/06/07 11:25:53;;;;;;;5.45;3.80;;;922.10;921.60;;;;;;5082444;28;20025;-77
2021/06/07 11:28:28;;;;;;;8.50;3.83;;;922.10;921.60;;;;;;5084805;28;20055;-77
2021/06/07 11:30:55;;;;;;;5.28;3.28;;;921.80;947.20;;;;;;5083539;28;20036;-78
2021/06/07 11:33:21;;;;;;;8.77;4.38;;;921.80;947.20;;;;;;5083865;28;20017;-78
2021/06/07 11:35:47;;;;;;;3.83;2.90;;;921.70;921.60;;;;;;5082614;28;20025;-78
2021/06/07 11:38:32;;;;;;;5.18;2.97;;;921.60;896.00;;;;;;5084197;28;20031;-78
2021/06/07 11:41:00;;;;;;;4.75;3.72;;;896.70;921.60;;;;;;5083548;28;20028;-78
2021/06/07 11:43:47;;;;;;;6.95;4.32;;;921.60;947.20;;;;;;5082351;28;20113;-78
2021/06/07 11:46:31;;;;;;;6.68;3.53;;;896.60;921.60;;;;;;5081872;28;20103;-79
2021/06/07 11:49:07;;;;;;;5.55;3.80;;;921.70;947.20;;;;;;5086018;28;20086;-78
2021/06/07 11:51:36;;;;;;;3.97;3.45;;;947.20;921.60;;;;;;5079699;28;20434;-78
2021/06/07 11:54:28;;;;;;;4.40;3.40;;;947.80;870.40;;;;;;5081797;28;20519;-78
2021/06/07 11:57:09;;;;;;;6.35;3.70;;;972.90;921.60;;;;;;5052929;28;20043;-78
2021/06/07 11:59:37;;;;;;;6.72;4.28;;;948.00;896.00;;;;;;5078904;28;20027;-78
2021/06/07 12:02:11;;;;;;;5.18;3.70;;;948.00;896.00;;;;;;5079283;28;20059;-78
2021/06/07 12:04:37;;;;;;;4.95;3.55;;;948.00;870.40;;;;;;5082112;28;20029;-78
2021/06/07 12:07:05;;;;;;;5.35;3.67;;;948.00;896.00;;;;;;5086115;28;20791;-78
2021/06/07 12:09:33;;;;;;;5.60;3.30;;;972.90;921.60;;;;;;5086355;28;20023;-78
2021/06/07 12:11:59;;;;;;;3.95;2.95;;;973.00;896.00;;;;;;5079492;28;20078;-77
2021/06/07 12:14:36;;;;;;;7.28;3.47;;;972.80;896.00;;;;;;5090007;28;20032;-78
2021/06/07 12:17:20;;;;;;;4.28;3.17;;;972.80;870.40;;;;;;5085526;28;20028;-78
2021/06/07 12:19:58;;;;;;;6.22;3.13;;;947.70;844.80;;;;;;5078908;28;20521;-79